Terminal Aerodrome Forecast
Issued by NWS Tampa Bay Area, FL

Home | Current Version | Previous Version | Text Only | Print | Product List | Glossary On
Versions: 1 2 3 4 5 6 7 8 9 10 11 12 13 14
051
FTUS42 KTBW 291959 AAA
TAFFMY
TAF AMD
KFMY 291959Z 2920/3018 25008KT P6SM VCTS SCT040CB
      TEMPO 2920/2923 3SM SHRA BKN040
     FM300200 VRB03KT P6SM FEW250=

USA.gov is the U.S. government's official web portal to all federal, state and local government web resources and services.